createdAt,value
2023-01-09T00:00:11.210Z,8.12
2023-01-09T00:01:11.136Z,8.12
2023-01-09T00:02:11.176Z,8.12
2023-01-09T00:03:11.116Z,8.11
2023-01-09T00:04:11.361Z,8.12
2023-01-09T00:05:11.092Z,8.10
2023-01-09T00:06:11.091Z,8.10
2023-01-09T00:07:11.064Z,8.11
2023-01-09T00:08:11.045Z,8.11
2023-01-09T00:09:11.056Z,8.11
2023-01-09T00:10:11.230Z,8.10
2023-01-09T00:11:11.012Z,8.11
2023-01-09T00:12:10.993Z,8.11
2023-01-09T00:13:10.983Z,8.10
2023-01-09T00:14:11.243Z,8.10
2023-01-09T00:15:11.124Z,8.10
2023-01-09T00:16:11.163Z,8.10
2023-01-09T00:17:10.932Z,8.08
2023-01-09T00:18:10.945Z,8.07
2023-01-09T00:19:10.916Z,8.07
2023-01-09T00:20:11.074Z,8.07
2023-01-09T00:21:10.885Z,8.07
2023-01-09T00:22:10.882Z,8.04
2023-01-09T00:23:10.857Z,8.02
2023-01-09T00:24:10.876Z,8.01
2023-01-09T00:25:10.832Z,8.00
2023-01-09T00:26:10.810Z,7.98
2023-01-09T00:27:10.977Z,7.97
2023-01-09T00:28:10.973Z,7.97
2023-01-09T00:29:10.778Z,7.97
2023-01-09T00:30:10.801Z,7.95
2023-01-09T00:31:10.746Z,7.95
2023-01-09T00:32:10.742Z,7.95
2023-01-09T00:33:10.962Z,7.92
2023-01-09T00:34:10.896Z,7.92
2023-01-09T00:35:10.704Z,7.92
2023-01-09T00:36:10.688Z,7.90
2023-01-09T00:37:10.667Z,7.87
2023-01-09T00:38:10.677Z,7.89
2023-01-09T00:39:10.644Z,7.87
2023-01-09T00:40:10.847Z,7.85
2023-01-09T00:41:10.625Z,7.85
2023-01-09T00:42:10.616Z,7.82
2023-01-09T00:43:10.627Z,7.82
2023-01-09T00:44:10.770Z,7.77
2023-01-09T00:45:10.566Z,7.75
2023-01-09T00:46:10.599Z,7.72
2023-01-09T00:47:10.537Z,7.71
2023-01-09T00:48:10.528Z,7.69
2023-01-09T00:49:10.725Z,7.69
2023-01-09T00:50:10.506Z,7.68
2023-01-09T00:51:10.493Z,7.68
2023-01-09T00:52:10.465Z,7.67
2023-01-09T00:53:10.456Z,7.67
2023-01-09T00:54:10.624Z,7.64
2023-01-09T00:55:10.433Z,7.63
2023-01-09T00:56:10.444Z,7.63
2023-01-09T00:57:10.406Z,7.63
2023-01-09T00:58:10.415Z,7.60
2023-01-09T00:59:10.384Z,7.61
2023-01-09T01:00:10.550Z,7.60
2023-01-09T01:01:10.430Z,7.58
2023-01-09T01:02:10.569Z,7.57
2023-01-09T01:03:10.331Z,7.58
2023-01-09T01:04:10.342Z,7.55
2023-01-09T01:05:10.473Z,7.55
2023-01-09T01:06:10.283Z,7.53
2023-01-09T01:07:10.453Z,7.53
2023-01-09T01:08:10.270Z,7.53
2023-01-09T01:09:10.269Z,7.52
2023-01-09T01:10:10.246Z,7.52
2023-01-09T01:11:10.242Z,7.48
2023-01-09T01:12:10.214Z,7.49
2023-01-09T01:13:10.201Z,7.49
2023-01-09T01:14:10.184Z,7.49
2023-01-09T01:15:10.171Z,7.48
2023-01-09T01:16:10.344Z,7.48
2023-01-09T01:17:10.159Z,7.46
2023-01-09T01:18:10.136Z,7.43
2023-01-09T01:19:10.119Z,7.43
2023-01-09T01:20:10.112Z,7.42
2023-01-09T01:21:10.285Z,7.43
2023-01-09T01:22:10.167Z,7.45
2023-01-09T01:23:10.073Z,7.45
2023-01-09T01:24:10.048Z,7.43
2023-01-09T01:25:10.040Z,7.42
2023-01-09T01:26:10.027Z,7.40
2023-01-09T01:27:10.030Z,7.42
2023-01-09T01:28:10.036Z,7.40
2023-01-09T01:29:09.991Z,7.40
2023-01-09T01:30:09.966Z,7.40
2023-01-09T01:31:10.017Z,7.39
2023-01-09T01:32:09.944Z,7.35
2023-01-09T01:33:10.119Z,7.35
2023-01-09T01:34:09.929Z,7.35
2023-01-09T01:35:09.968Z,7.35
2023-01-09T01:36:09.890Z,7.35
2023-01-09T01:37:09.886Z,7.34
2023-01-09T01:38:09.871Z,7.34
2023-01-09T01:39:10.046Z,7.35
2023-01-09T01:40:09.875Z,7.37
2023-01-09T01:41:09.841Z,7.37
2023-01-09T01:42:09.817Z,7.37
2023-01-09T01:43:09.804Z,7.35
2023-01-09T01:44:09.974Z,7.34
2023-01-09T01:45:09.784Z,7.34
2023-01-09T01:46:09.874Z,7.31
2023-01-09T01:47:09.756Z,7.31
2023-01-09T01:48:09.744Z,7.30
2023-01-09T01:49:09.974Z,7.30
2023-01-09T01:50:09.723Z,7.30
2023-01-09T01:51:09.706Z,7.28
2023-01-09T01:52:09.694Z,7.30
2023-01-09T01:53:09.692Z,7.27
2023-01-09T01:54:09.835Z,7.27
2023-01-09T01:55:09.648Z,7.25
2023-01-09T01:56:09.835Z,7.25
2023-01-09T01:57:09.625Z,7.24
2023-01-09T01:58:09.602Z,7.23
2023-01-09T01:59:09.600Z,7.21
2023-01-09T02:00:09.581Z,7.21
2023-01-09T02:01:09.680Z,7.21
2023-01-09T02:02:09.743Z,7.21
2023-01-09T02:03:09.537Z,7.23
2023-01-09T02:04:09.521Z,7.21
2023-01-09T02:05:09.524Z,7.21
2023-01-09T02:06:09.532Z,7.21
2023-01-09T02:07:09.520Z,7.24
2023-01-09T02:08:09.525Z,7.21
2023-01-09T02:09:09.499Z,7.20
2023-01-09T02:10:09.454Z,7.21
2023-01-09T02:11:09.452Z,7.20
2023-01-09T02:12:09.431Z,7.17
2023-01-09T02:13:09.423Z,7.16
2023-01-09T02:14:09.399Z,7.16
2023-01-09T02:15:09.397Z,7.17
2023-01-09T02:16:09.387Z,7.16
2023-01-09T02:17:09.547Z,7.16
2023-01-09T02:18:09.356Z,7.15
2023-01-09T02:19:09.328Z,7.13
2023-01-09T02:20:09.359Z,7.12
2023-01-09T02:21:09.307Z,7.12
2023-01-09T02:22:10.512Z,7.10
2023-01-09T02:23:09.295Z,7.10
2023-01-09T02:24:09.434Z,7.07
2023-01-09T02:25:09.255Z,7.07
2023-01-09T02:26:09.237Z,7.06
2023-01-09T02:27:09.417Z,7.07
2023-01-09T02:28:09.223Z,7.07
2023-01-09T02:29:09.200Z,7.06
2023-01-09T02:30:09.198Z,7.07
2023-01-09T02:31:09.229Z,7.07
2023-01-09T02:32:09.187Z,7.05
2023-01-09T02:33:09.147Z,7.06
2023-01-09T02:34:09.124Z,7.07
2023-01-09T02:35:09.156Z,7.07
2023-01-09T02:36:09.113Z,7.05
2023-01-09T02:37:09.261Z,7.05
2023-01-09T02:38:09.093Z,7.05
2023-01-09T02:39:09.091Z,7.05
2023-01-09T02:40:09.058Z,7.02
2023-01-09T02:41:09.058Z,7.03
2023-01-09T02:42:09.055Z,7.03
2023-01-09T02:43:09.017Z,7.03
2023-01-09T02:44:09.006Z,7.02
2023-01-09T02:45:08.991Z,6.98
2023-01-09T02:46:08.987Z,6.97
2023-01-09T02:47:09.152Z,6.97
2023-01-09T02:48:08.962Z,6.98
2023-01-09T02:49:08.930Z,6.95
2023-01-09T02:50:08.960Z,6.92
2023-01-09T02:51:08.921Z,6.94
2023-01-09T02:52:08.911Z,6.92
2023-01-09T02:53:08.883Z,6.92
2023-01-09T02:54:08.881Z,6.94
2023-01-09T02:55:08.880Z,6.91
2023-01-09T02:56:09.030Z,6.91
2023-01-09T02:57:09.014Z,6.92
2023-01-09T02:58:08.819Z,6.89
2023-01-09T02:59:08.805Z,6.89
2023-01-09T03:00:08.819Z,6.89
2023-01-09T03:01:08.897Z,6.88
2023-01-09T03:02:08.763Z,6.88
2023-01-09T03:03:08.777Z,6.87
2023-01-09T03:04:08.744Z,6.87
2023-01-09T03:05:08.717Z,6.87
2023-01-09T03:06:08.904Z,6.87
2023-01-09T03:07:08.701Z,6.85
2023-01-09T03:08:08.704Z,6.84
2023-01-09T03:09:08.671Z,6.84
2023-01-09T03:10:08.654Z,6.81
2023-01-09T03:11:08.807Z,6.84
2023-01-09T03:12:08.643Z,6.84
2023-01-09T03:13:08.608Z,6.81
2023-01-09T03:14:08.608Z,6.84
2023-01-09T03:15:08.601Z,6.85
2023-01-09T03:16:08.640Z,6.85
2023-01-09T03:17:08.570Z,6.85
2023-01-09T03:18:09.514Z,6.85
2023-01-09T03:19:08.591Z,6.87
2023-01-09T03:20:08.526Z,6.88
2023-01-09T03:21:08.531Z,6.88
2023-01-09T03:22:08.516Z,6.88
2023-01-09T03:23:08.698Z,6.88
2023-01-09T03:24:08.475Z,6.87
2023-01-09T03:25:08.467Z,6.87
2023-01-09T03:26:09.215Z,6.85
2023-01-09T03:27:08.444Z,6.88
2023-01-09T03:28:08.598Z,6.88
2023-01-09T03:29:08.413Z,6.88
2023-01-09T03:30:08.572Z,6.91
2023-01-09T03:31:08.494Z,6.89
2023-01-09T03:32:08.386Z,6.89
2023-01-09T03:33:08.604Z,6.91
2023-01-09T03:34:08.384Z,6.91
2023-01-09T03:35:08.505Z,6.91
2023-01-09T03:36:08.313Z,6.92
2023-01-09T03:37:08.308Z,6.91
2023-01-09T03:38:08.315Z,6.92
2023-01-09T03:39:08.290Z,6.92
2023-01-09T03:40:08.472Z,6.92
2023-01-09T03:41:08.260Z,6.92
2023-01-09T03:42:08.254Z,6.94
2023-01-09T03:43:08.241Z,6.91
2023-01-09T03:44:08.218Z,6.94
2023-01-09T03:45:08.385Z,6.92
2023-01-09T03:46:08.217Z,6.94
2023-01-09T03:47:08.181Z,6.92
2023-01-09T03:48:08.181Z,6.92
2023-01-09T03:49:08.167Z,6.94
2023-01-09T03:50:08.153Z,6.94
2023-01-09T03:51:08.131Z,6.95
2023-01-09T03:52:08.177Z,6.97
2023-01-09T03:53:08.100Z,6.95
2023-01-09T03:54:08.137Z,6.97
2023-01-09T03:55:08.249Z,6.97
2023-01-09T03:56:08.066Z,6.95
2023-01-09T03:57:08.052Z,6.94
2023-01-09T03:58:08.042Z,6.92
2023-01-09T03:59:08.022Z,6.94
2023-01-09T04:00:08.289Z,6.94
2023-01-09T04:01:08.081Z,6.95
2023-01-09T04:02:08.123Z,6.94
2023-01-09T04:03:07.967Z,6.95
2023-01-09T04:04:07.987Z,6.95
2023-01-09T04:05:08.136Z,6.95
2023-01-09T04:06:08.101Z,6.94
2023-01-09T04:07:07.923Z,6.94
2023-01-09T04:08:07.918Z,6.92
2023-01-09T04:09:07.927Z,6.92
2023-01-09T04:10:07.867Z,6.92
2023-01-09T04:11:07.879Z,6.89
2023-01-09T04:12:07.847Z,6.91
2023-01-09T04:13:08.015Z,6.91
2023-01-09T04:14:07.828Z,6.89
2023-01-09T04:15:07.806Z,6.87
2023-01-09T04:16:08.037Z,6.87
2023-01-09T04:17:07.791Z,6.87
2023-01-09T04:18:07.778Z,6.88
2023-01-09T04:19:07.943Z,6.87
2023-01-09T04:20:07.738Z,6.87
2023-01-09T04:21:07.725Z,6.85
2023-01-09T04:22:07.894Z,6.87
2023-01-09T04:23:07.729Z,6.85
2023-01-09T04:24:07.867Z,6.81
2023-01-09T04:25:07.691Z,6.81
2023-01-09T04:26:07.664Z,6.79
2023-01-09T04:27:07.660Z,6.76
2023-01-09T04:28:07.670Z,6.74
2023-01-09T04:29:07.821Z,6.73
2023-01-09T04:30:07.621Z,6.73
2023-01-09T04:31:07.615Z,6.70
2023-01-09T04:32:07.582Z,6.70
2023-01-09T04:33:07.582Z,6.70
2023-01-09T04:34:07.792Z,6.69
2023-01-09T04:35:07.735Z,6.66
2023-01-09T04:36:07.562Z,6.64
2023-01-09T04:37:07.522Z,6.62
2023-01-09T04:38:07.502Z,6.59
2023-01-09T04:39:07.500Z,6.58
2023-01-09T04:40:07.481Z,6.56
2023-01-09T04:41:07.664Z,6.55
2023-01-09T04:42:07.457Z,6.54
2023-01-09T04:43:07.472Z,6.52
2023-01-09T04:44:07.433Z,6.49
2023-01-09T04:45:07.609Z,6.49
2023-01-09T04:46:07.439Z,6.46
2023-01-09T04:47:07.399Z,6.44
2023-01-09T04:48:07.546Z,6.44
2023-01-09T04:49:07.376Z,6.43
2023-01-09T04:50:07.535Z,6.43
2023-01-09T04:51:07.344Z,6.43
2023-01-09T04:52:07.331Z,6.43
2023-01-09T04:53:07.376Z,6.40
2023-01-09T04:54:07.476Z,6.40
2023-01-09T04:55:07.492Z,6.38
2023-01-09T04:56:07.266Z,6.34
2023-01-09T04:57:07.273Z,6.34
2023-01-09T04:58:07.288Z,6.33
2023-01-09T04:59:07.226Z,6.30
2023-01-09T05:00:07.395Z,6.31
2023-01-09T05:01:07.355Z,6.28
2023-01-09T05:02:07.359Z,6.27
2023-01-09T05:03:07.177Z,6.25
2023-01-09T05:04:07.383Z,6.25
2023-01-09T05:05:08.562Z,6.25
2023-01-09T05:06:07.173Z,6.25
2023-01-09T05:07:07.125Z,6.25
2023-01-09T05:08:07.115Z,6.22
2023-01-09T05:09:07.337Z,6.21
2023-01-09T05:10:07.115Z,6.21
2023-01-09T05:11:07.080Z,6.19
2023-01-09T05:12:07.065Z,6.18
2023-01-09T05:13:07.045Z,6.18
2023-01-09T05:14:07.207Z,6.17
2023-01-09T05:15:07.075Z,6.17
2023-01-09T05:16:07.026Z,6.17
2023-01-09T05:17:06.995Z,6.14
2023-01-09T05:18:06.986Z,6.14
2023-01-09T05:19:07.221Z,6.14
2023-01-09T05:20:06.964Z,6.14
2023-01-09T05:21:07.114Z,6.15
2023-01-09T05:22:06.948Z,6.12
2023-01-09T05:23:06.912Z,6.15
2023-01-09T05:24:06.909Z,6.14
2023-01-09T05:25:06.896Z,6.12
2023-01-09T05:26:07.625Z,6.14
2023-01-09T05:27:06.859Z,6.12
2023-01-09T05:28:06.861Z,6.14
2023-01-09T05:29:06.832Z,6.15
2023-01-09T05:30:06.828Z,6.17
2023-01-09T05:31:07.032Z,6.18
2023-01-09T05:32:06.827Z,6.21
2023-01-09T05:33:06.780Z,6.21
2023-01-09T05:34:06.777Z,6.22
2023-01-09T05:35:06.765Z,6.25
2023-01-09T05:36:06.742Z,6.25
2023-01-09T05:37:06.748Z,6.27
2023-01-09T05:38:06.878Z,6.28
2023-01-09T05:39:06.730Z,6.28
2023-01-09T05:40:06.693Z,6.28
2023-01-09T05:41:06.678Z,6.30
2023-01-09T05:42:06.660Z,6.30
2023-01-09T05:43:06.817Z,6.30
2023-01-09T05:44:06.689Z,6.30
2023-01-09T05:45:06.629Z,6.30
2023-01-09T05:46:06.631Z,6.30
2023-01-09T05:47:06.623Z,6.31
2023-01-09T05:48:06.755Z,6.31
2023-01-09T05:49:06.745Z,6.33
2023-01-09T05:50:06.567Z,6.36
2023-01-09T05:51:06.547Z,6.36
2023-01-09T05:52:06.528Z,6.37
2023-01-09T05:53:06.517Z,6.37
2023-01-09T05:54:06.681Z,6.40
2023-01-09T05:55:06.499Z,6.41
2023-01-09T05:56:06.475Z,6.43
2023-01-09T05:57:06.476Z,6.43
2023-01-09T05:58:06.455Z,6.46
2023-01-09T05:59:06.459Z,6.46
2023-01-09T06:00:06.437Z,6.46
2023-01-09T06:01:06.508Z,6.48
2023-01-09T06:02:06.446Z,6.48
2023-01-09T06:03:06.419Z,6.48
2023-01-09T06:04:06.397Z,6.46
2023-01-09T06:05:06.364Z,6.46
2023-01-09T06:06:06.353Z,6.48
2023-01-09T06:07:06.343Z,6.48
2023-01-09T06:08:06.334Z,6.46
2023-01-09T06:09:06.330Z,6.46
2023-01-09T06:10:06.311Z,6.46
2023-01-09T06:11:06.481Z,6.44
2023-01-09T06:12:06.273Z,6.46
2023-01-09T06:13:06.267Z,6.46
2023-01-09T06:14:06.240Z,6.48
2023-01-09T06:15:08.798Z,6.48
2023-01-09T06:16:06.337Z,6.46
2023-01-09T06:17:06.214Z,6.46
2023-01-09T06:18:06.207Z,6.49
2023-01-09T06:19:06.181Z,6.51
2023-01-09T06:20:06.209Z,6.51
2023-01-09T06:21:06.167Z,6.49
2023-01-09T06:22:06.131Z,6.49
2023-01-09T06:23:06.119Z,6.49
2023-01-09T06:24:06.109Z,6.51
2023-01-09T06:25:06.102Z,6.49
2023-01-09T06:26:06.108Z,6.49
2023-01-09T06:27:06.080Z,6.51
2023-01-09T06:28:06.062Z,6.49
2023-01-09T06:29:06.051Z,6.49
2023-01-09T06:30:06.037Z,6.51
2023-01-09T06:31:06.132Z,6.51
2023-01-09T06:32:06.007Z,6.48
2023-01-09T06:33:05.999Z,6.49
2023-01-09T06:34:05.977Z,6.49
2023-01-09T06:35:05.977Z,6.49
2023-01-09T06:36:05.990Z,6.51
2023-01-09T06:37:06.117Z,6.52
2023-01-09T06:38:05.942Z,6.49
2023-01-09T06:39:05.926Z,6.51
2023-01-09T06:40:05.931Z,6.51
2023-01-09T06:41:05.893Z,6.51
2023-01-09T06:42:05.874Z,6.49
2023-01-09T06:43:05.895Z,6.49
2023-01-09T06:44:05.870Z,6.51
2023-01-09T06:45:06.012Z,6.49
2023-01-09T06:46:05.890Z,6.51
2023-01-09T06:47:05.821Z,6.49
2023-01-09T06:48:05.794Z,6.49
2023-01-09T06:49:05.804Z,6.49
2023-01-09T06:50:05.768Z,6.48
2023-01-09T06:51:05.955Z,6.46
2023-01-09T06:52:05.844Z,6.44
2023-01-09T06:53:05.750Z,6.44
2023-01-09T06:54:05.728Z,6.44
2023-01-09T06:55:05.719Z,6.43
2023-01-09T06:56:05.865Z,6.41
2023-01-09T06:57:05.683Z,6.40
2023-01-09T06:58:05.662Z,6.40
2023-01-09T06:59:05.658Z,6.40
2023-01-09T07:00:05.643Z,6.38
2023-01-09T07:01:05.913Z,6.38
2023-01-09T07:02:05.711Z,6.38
2023-01-09T07:03:05.613Z,6.41
2023-01-09T07:04:05.608Z,6.41
2023-01-09T07:05:05.583Z,6.40
2023-01-09T07:06:05.612Z,6.41
2023-01-09T07:07:05.730Z,6.41
2023-01-09T07:08:05.532Z,6.43
2023-01-09T07:09:05.531Z,6.41
2023-01-09T07:10:05.522Z,6.41
2023-01-09T07:11:05.515Z,6.41
2023-01-09T07:12:05.501Z,6.43
2023-01-09T07:13:05.647Z,6.44
2023-01-09T07:14:05.458Z,6.44
2023-01-09T07:15:05.487Z,6.44
2023-01-09T07:16:05.541Z,6.49
2023-01-09T07:17:05.591Z,6.49
2023-01-09T07:18:05.409Z,6.51
2023-01-09T07:19:05.432Z,6.52
2023-01-09T07:20:05.379Z,6.55
2023-01-09T07:21:05.368Z,6.56
2023-01-09T07:22:05.521Z,6.55
2023-01-09T07:23:05.363Z,6.55
2023-01-09T07:24:05.316Z,6.56
2023-01-09T07:25:05.487Z,6.58
2023-01-09T07:26:05.302Z,6.59
2023-01-09T07:27:05.289Z,6.61
2023-01-09T07:28:05.287Z,6.62
2023-01-09T07:29:05.258Z,6.62
2023-01-09T07:30:05.432Z,6.64
2023-01-09T07:31:05.300Z,6.62
2023-01-09T07:32:05.224Z,6.64
2023-01-09T07:33:05.255Z,6.64
2023-01-09T07:34:05.199Z,6.66
2023-01-09T07:35:05.362Z,6.62
2023-01-09T07:36:05.200Z,6.64
2023-01-09T07:37:05.150Z,6.64
2023-01-09T07:38:05.140Z,6.64
2023-01-09T07:39:05.127Z,6.66
2023-01-09T07:40:05.307Z,6.67
2023-01-09T07:41:05.117Z,6.67
2023-01-09T07:42:05.269Z,6.69
2023-01-09T07:43:05.093Z,6.67
2023-01-09T07:44:05.083Z,6.69
2023-01-09T07:45:05.057Z,6.71
2023-01-09T07:46:05.077Z,6.73
2023-01-09T07:47:05.209Z,6.74
2023-01-09T07:48:05.028Z,6.74
2023-01-09T07:49:05.014Z,6.76
2023-01-09T07:50:05.000Z,6.74
2023-01-09T07:51:04.968Z,6.74
2023-01-09T07:52:04.958Z,6.74
2023-01-09T07:53:04.988Z,6.73
2023-01-09T07:54:04.940Z,6.71
2023-01-09T07:55:04.942Z,6.70
2023-01-09T07:56:04.912Z,6.71
2023-01-09T07:57:04.900Z,6.70
2023-01-09T07:58:04.872Z,6.71
2023-01-09T07:59:04.881Z,6.71
2023-01-09T08:00:05.062Z,6.73
2023-01-09T08:01:04.887Z,6.73
2023-01-09T08:02:04.875Z,6.74
2023-01-09T08:03:04.894Z,6.73
2023-01-09T08:04:04.798Z,6.74
2023-01-09T08:05:04.968Z,6.74
2023-01-09T08:06:04.777Z,6.76
2023-01-09T08:07:04.947Z,6.76
2023-01-09T08:08:04.767Z,6.77
2023-01-09T08:09:04.747Z,6.77
2023-01-09T08:10:04.742Z,6.79
2023-01-09T08:11:05.442Z,6.79
2023-01-09T08:12:04.878Z,6.80
2023-01-09T08:13:04.692Z,6.81
2023-01-09T08:14:04.676Z,6.81
2023-01-09T08:15:04.703Z,6.84
2023-01-09T08:16:04.679Z,6.85
2023-01-09T08:17:04.813Z,6.84
2023-01-09T08:18:04.615Z,6.84
2023-01-09T08:19:04.606Z,6.85
2023-01-09T08:20:04.608Z,6.81
2023-01-09T08:21:04.582Z,6.81
2023-01-09T08:22:04.745Z,6.81
2023-01-09T08:23:04.555Z,6.81
2023-01-09T08:24:04.542Z,6.81
2023-01-09T08:25:04.533Z,6.80
2023-01-09T08:26:04.527Z,6.80
2023-01-09T08:27:04.495Z,6.80
2023-01-09T08:28:04.653Z,6.79
2023-01-09T08:29:04.504Z,6.79
2023-01-09T08:30:04.459Z,6.80
2023-01-09T08:31:04.571Z,6.77
2023-01-09T08:32:04.604Z,6.79
2023-01-09T08:33:04.424Z,6.76
2023-01-09T08:34:04.391Z,6.76
2023-01-09T08:35:04.445Z,6.77
2023-01-09T08:36:04.398Z,6.77
2023-01-09T08:37:04.557Z,6.77
2023-01-09T08:38:04.370Z,6.77
2023-01-09T08:39:04.357Z,6.77
2023-01-09T08:40:04.345Z,6.77
2023-01-09T08:41:04.323Z,6.77
2023-01-09T08:42:04.317Z,6.74
2023-01-09T08:43:04.306Z,6.74
2023-01-09T08:44:04.304Z,6.74
2023-01-09T08:45:04.264Z,6.74
2023-01-09T08:46:04.477Z,6.73
2023-01-09T08:47:04.231Z,6.73
2023-01-09T08:48:04.249Z,6.73
2023-01-09T08:49:04.200Z,6.74
2023-01-09T08:50:04.199Z,6.73
2023-01-09T08:51:04.380Z,6.76
2023-01-09T08:52:04.176Z,6.76
2023-01-09T08:53:04.164Z,6.74
2023-01-09T08:54:04.139Z,6.76
2023-01-09T08:55:04.128Z,6.77
2023-01-09T08:56:04.332Z,6.79
2023-01-09T08:57:04.096Z,6.79
2023-01-09T08:58:04.100Z,6.80
2023-01-09T08:59:04.079Z,6.79
2023-01-09T09:00:04.069Z,6.79
2023-01-09T09:01:04.216Z,6.79
2023-01-09T09:02:04.041Z,6.79
2023-01-09T09:03:04.085Z,6.77
2023-01-09T09:04:04.008Z,6.80
2023-01-09T09:05:04.015Z,6.79
2023-01-09T09:06:04.007Z,6.79
2023-01-09T09:07:03.986Z,6.80
2023-01-09T09:08:03.978Z,6.79
2023-01-09T09:09:03.954Z,6.80
2023-01-09T09:10:03.957Z,6.80
2023-01-09T09:11:04.100Z,6.81
2023-01-09T09:12:03.916Z,6.80
2023-01-09T09:13:03.907Z,6.81
2023-01-09T09:14:03.885Z,6.81
2023-01-09T09:15:03.865Z,6.80
2023-01-09T09:16:04.067Z,6.81
2023-01-09T09:17:04.030Z,6.81
2023-01-09T09:18:03.844Z,6.81
2023-01-09T09:19:03.827Z,6.81
2023-01-09T09:20:03.803Z,6.79
2023-01-09T09:21:03.976Z,6.79
2023-01-09T09:22:03.773Z,6.77
2023-01-09T09:23:03.771Z,6.80
2023-01-09T09:24:03.742Z,6.79
2023-01-09T09:25:03.753Z,6.77
2023-01-09T09:26:04.011Z,6.76
2023-01-09T09:27:03.738Z,6.76
2023-01-09T09:28:03.695Z,6.76
2023-01-09T09:29:03.860Z,6.74
2023-01-09T09:30:03.663Z,6.76
2023-01-09T09:31:03.682Z,6.74
2023-01-09T09:32:03.829Z,6.76
2023-01-09T09:33:03.652Z,6.74
2023-01-09T09:34:03.659Z,6.74
2023-01-09T09:35:03.601Z,6.73
2023-01-09T09:36:03.589Z,6.71
2023-01-09T09:37:03.644Z,6.73
2023-01-09T09:38:05.398Z,6.71
2023-01-09T09:39:03.649Z,6.70
2023-01-09T09:40:13.546Z,6.70
2023-01-09T09:41:04.530Z,6.71
2023-01-09T09:42:03.519Z,6.71
2023-01-09T09:43:03.516Z,6.73
2023-01-09T09:44:03.539Z,6.74
2023-01-09T09:45:03.496Z,6.74
2023-01-09T09:46:03.656Z,6.73
2023-01-09T09:47:03.449Z,6.73
2023-01-09T09:48:03.439Z,6.73
2023-01-09T09:49:03.418Z,6.74
2023-01-09T09:50:03.400Z,6.74
2023-01-09T09:51:03.586Z,6.73
2023-01-09T09:52:03.384Z,6.74
2023-01-09T09:53:03.388Z,6.73
2023-01-09T09:54:03.374Z,6.73
2023-01-09T09:55:03.348Z,6.71
2023-01-09T09:56:03.357Z,6.71
2023-01-09T09:57:03.327Z,6.73
2023-01-09T09:58:03.497Z,6.71
2023-01-09T09:59:03.292Z,6.71
2023-01-09T10:00:03.445Z,6.73
2023-01-09T10:01:03.261Z,6.73
2023-01-09T10:02:03.313Z,6.73
2023-01-09T10:03:03.265Z,6.73
2023-01-09T10:04:03.285Z,6.74
2023-01-09T10:05:03.223Z,6.74
2023-01-09T10:06:03.211Z,6.74
2023-01-09T10:07:03.355Z,6.74
2023-01-09T10:08:14.861Z,6.76
2023-01-09T10:09:04.156Z,6.76
2023-01-09T10:10:03.151Z,6.77
2023-01-09T10:11:03.133Z,6.79
2023-01-09T10:12:03.121Z,6.79
2023-01-09T10:13:03.288Z,6.81
2023-01-09T10:14:05.944Z,6.81
2023-01-09T10:15:03.097Z,6.84
2023-01-09T10:16:03.087Z,6.85
2023-01-09T10:17:03.056Z,6.87
2023-01-09T10:18:03.201Z,6.87
2023-01-09T10:19:03.113Z,6.87
2023-01-09T10:20:03.020Z,6.88
2023-01-09T10:21:03.038Z,6.87
2023-01-09T10:22:02.991Z,6.87
2023-01-09T10:23:02.981Z,6.87
2023-01-09T10:24:03.140Z,6.87
2023-01-09T10:25:02.950Z,6.89
2023-01-09T10:26:02.926Z,6.89
2023-01-09T10:27:02.929Z,6.91
2023-01-09T10:28:02.903Z,6.94
2023-01-09T10:29:02.897Z,6.95
2023-01-09T10:30:02.898Z,6.97
2023-01-09T10:31:02.916Z,6.99
2023-01-09T10:32:02.851Z,6.99
2023-01-09T10:33:02.861Z,6.99
2023-01-09T10:34:02.830Z,6.99
2023-01-09T10:35:02.998Z,6.99
2023-01-09T10:36:02.810Z,7.03
2023-01-09T10:37:02.855Z,7.06
2023-01-09T10:38:02.779Z,7.06
2023-01-09T10:39:02.770Z,7.09
2023-01-09T10:40:02.921Z,7.12
2023-01-09T10:41:02.948Z,7.16
2023-01-09T10:42:02.728Z,7.17
2023-01-09T10:43:02.741Z,7.23
2023-01-09T10:44:02.703Z,7.25
2023-01-09T10:45:02.691Z,7.28
2023-01-09T10:46:02.687Z,7.34
2023-01-09T10:47:02.893Z,7.37
2023-01-09T10:48:02.647Z,7.42
2023-01-09T10:49:02.635Z,7.45
2023-01-09T10:50:02.623Z,7.46
2023-01-09T10:51:02.624Z,7.50
2023-01-09T10:52:02.767Z,7.50
2023-01-09T10:53:02.595Z,7.53
2023-01-09T10:54:02.560Z,7.55
2023-01-09T10:55:02.574Z,7.58
2023-01-09T10:56:02.545Z,7.58
2023-01-09T10:57:02.693Z,7.60
2023-01-09T10:58:02.547Z,7.60
2023-01-09T10:59:02.504Z,7.60
2023-01-09T11:00:02.483Z,7.60
2023-01-09T11:01:02.481Z,7.60
2023-01-09T11:02:02.672Z,7.61
2023-01-09T11:03:02.544Z,7.61
2023-01-09T11:04:02.436Z,7.61
2023-01-09T11:05:02.443Z,7.61
2023-01-09T11:06:02.489Z,7.61
2023-01-09T11:07:02.528Z,7.57
2023-01-09T11:08:02.422Z,7.60
2023-01-09T11:09:02.452Z,7.60
2023-01-09T11:10:02.437Z,7.61
2023-01-09T11:11:02.349Z,7.61
2023-01-09T11:12:02.502Z,7.63
2023-01-09T11:13:02.510Z,7.63
2023-01-09T11:14:02.297Z,7.63
2023-01-09T11:15:02.296Z,7.68
2023-01-09T11:16:02.397Z,7.69
2023-01-09T11:17:02.288Z,7.71
2023-01-09T11:18:02.510Z,7.69
2023-01-09T11:19:02.263Z,7.71
2023-01-09T11:20:02.234Z,7.72
2023-01-09T11:21:02.213Z,7.74
2023-01-09T11:22:02.187Z,7.77
2023-01-09T11:23:02.197Z,7.77
2023-01-09T11:24:02.351Z,7.80
2023-01-09T11:25:02.186Z,7.80
2023-01-09T11:26:02.327Z,7.83
2023-01-09T11:27:02.149Z,7.85
2023-01-09T11:28:02.120Z,7.87
2023-01-09T11:29:02.117Z,7.89
2023-01-09T11:30:02.086Z,7.89
2023-01-09T11:31:02.177Z,7.90
2023-01-09T11:32:02.245Z,7.92
2023-01-09T11:33:02.068Z,7.93
2023-01-09T11:34:02.059Z,7.93
2023-01-09T11:35:02.034Z,7.95
2023-01-09T11:36:02.105Z,7.93
2023-01-09T11:37:02.215Z,7.95
2023-01-09T11:38:02.254Z,7.98
2023-01-09T11:39:01.964Z,7.98
2023-01-09T11:40:01.996Z,8.00
2023-01-09T11:41:01.963Z,7.98
2023-01-09T11:42:01.970Z,7.98
2023-01-09T11:43:02.112Z,8.01
2023-01-09T11:44:01.913Z,8.01
2023-01-09T11:45:01.891Z,8.00
2023-01-09T11:46:02.243Z,7.98
2023-01-09T11:47:01.967Z,7.98
2023-01-09T11:48:02.135Z,7.98
2023-01-09T11:49:01.845Z,7.97
2023-01-09T11:50:01.833Z,7.97
2023-01-09T11:51:01.815Z,7.95
2023-01-09T11:52:01.802Z,7.95
2023-01-09T11:53:01.791Z,7.95
2023-01-09T11:54:01.799Z,7.93
2023-01-09T11:55:01.769Z,7.93
2023-01-09T11:56:01.764Z,7.95
2023-01-09T11:57:01.919Z,7.95
2023-01-09T11:58:01.727Z,7.95
2023-01-09T11:59:01.710Z,7.93
2023-01-09T12:00:01.727Z,7.93
2023-01-09T12:01:01.680Z,7.92
2023-01-09T12:02:01.774Z,7.93
2023-01-09T12:03:01.696Z,7.95
2023-01-09T12:04:01.648Z,7.95
2023-01-09T12:05:01.644Z,7.95
2023-01-09T12:06:01.642Z,7.97
2023-01-09T12:07:01.642Z,7.93
2023-01-09T12:08:01.599Z,7.92
2023-01-09T12:09:01.592Z,7.95
2023-01-09T12:10:01.838Z,7.92
2023-01-09T12:11:01.550Z,7.90
2023-01-09T12:12:01.559Z,7.87
2023-01-09T12:13:01.536Z,7.86
2023-01-09T12:14:01.517Z,7.85
2023-01-09T12:15:01.675Z,7.85
2023-01-09T12:16:01.528Z,7.82
2023-01-09T12:17:01.476Z,7.79
2023-01-09T12:18:01.465Z,7.79
2023-01-09T12:19:01.455Z,7.80
2023-01-09T12:20:01.614Z,7.80
2023-01-09T12:21:01.603Z,7.77
2023-01-09T12:22:01.448Z,7.79
2023-01-09T12:23:01.429Z,7.74
2023-01-09T12:24:01.427Z,7.71
2023-01-09T12:25:01.543Z,7.69
2023-01-09T12:26:01.368Z,7.68
2023-01-09T12:27:01.348Z,7.64
2023-01-09T12:28:01.355Z,7.64
2023-01-09T12:29:01.314Z,7.63
2023-01-09T12:30:01.310Z,7.63
2023-01-09T12:31:01.294Z,7.63
2023-01-09T12:32:01.343Z,7.60
2023-01-09T12:33:01.273Z,7.58
2023-01-09T12:34:01.446Z,7.57
2023-01-09T12:35:01.242Z,7.57
2023-01-09T12:36:01.276Z,7.55
2023-01-09T12:37:01.303Z,7.53
2023-01-09T12:38:01.211Z,7.55
2023-01-09T12:39:02.227Z,7.53
2023-01-09T12:40:01.343Z,7.57
2023-01-09T12:41:01.160Z,7.55
2023-01-09T12:42:01.151Z,7.57
2023-01-09T12:43:01.154Z,7.58
2023-01-09T12:44:01.373Z,7.58
2023-01-09T12:45:01.295Z,7.60
2023-01-09T12:46:01.145Z,7.61
2023-01-09T12:47:01.081Z,7.63
2023-01-09T12:48:01.074Z,7.60
2023-01-09T12:49:01.076Z,7.57
2023-01-09T12:50:01.047Z,7.53
2023-01-09T12:51:01.216Z,7.55
2023-01-09T12:52:01.021Z,7.57
2023-01-09T12:53:01.013Z,7.55
2023-01-09T12:54:00.986Z,7.52
2023-01-09T12:55:02.204Z,7.50
2023-01-09T12:56:01.144Z,7.49
2023-01-09T12:57:00.959Z,7.49
2023-01-09T12:58:00.958Z,7.46
2023-01-09T12:59:00.929Z,7.48
2023-01-09T13:00:00.936Z,7.49
2023-01-09T13:01:00.955Z,7.50
2023-01-09T13:02:00.957Z,7.48
2023-01-09T13:03:12.048Z,7.46
2023-01-09T13:04:01.881Z,7.43
2023-01-09T13:05:00.849Z,7.42
2023-01-09T13:06:01.096Z,7.40
2023-01-09T13:07:00.861Z,7.42
2023-01-09T13:08:00.816Z,7.40
2023-01-09T13:09:00.790Z,7.34
2023-01-09T13:10:00.843Z,7.34
2023-01-09T13:11:08.574Z,7.31
2023-01-09T13:12:01.758Z,7.31
2023-01-09T13:13:00.743Z,7.31
2023-01-09T13:14:00.734Z,7.32
2023-01-09T13:15:00.727Z,7.32
2023-01-09T13:16:00.934Z,7.34
2023-01-09T13:17:00.895Z,7.31
2023-01-09T13:18:00.723Z,7.32